AAY1247 KMYR-KMDT
Flight info
| Callsign | AAY1247 |
|---|---|
| Flight time | N/A |
| Altitude | 35000 |
| Route | SMPRR RDU FAK/N0463F360 COURG/N0463F350 BAMMY/N0277F090 T299 HAR |
| Aircraft | A320/M-SDE3FGHIRWY/LB1 |
Departure
| Time | 2026-04-21 00:59 |
|---|---|
| Airport | Myrtle Beach International Airport (KMYR) |
Arrival
| Time | N/A |
|---|---|
| Airport | Harrisburg International Airport (KMDT) |
| Time | Latitude | Longitude | Altitude | Speed | Heading |
|---|---|---|---|---|---|
| 2026-04-21 00:35 | 33.68073 | -78.92420 | 32 ft | 0 kts | 169° |
| 2026-04-21 00:44 | 33.68091 | -78.92424 | 31 ft | 4 kts | 174° |
| 2026-04-21 00:45 | 33.68123 | -78.92411 | 31 ft | 0 kts | 278° |
| 2026-04-21 00:45 | 33.68125 | -78.92433 | 31 ft | 4 kts | 271° |
| 2026-04-21 00:45 | 33.68121 | -78.92458 | 30 ft | 4 kts | 257° |
| 2026-04-21 00:45 | 33.68115 | -78.92485 | 31 ft | 1 kts | 257° |
| 2026-04-21 00:46 | 33.68115 | -78.92486 | 31 ft | 0 kts | 257° |
| 2026-04-21 00:49 | 33.68114 | -78.92491 | 32 ft | 2 kts | 257° |
| 2026-04-21 00:50 | 33.68113 | -78.92500 | 32 ft | 3 kts | 257° |
| 2026-04-21 00:50 | 33.68109 | -78.92521 | 32 ft | 3 kts | 257° |
| 2026-04-21 00:50 | 33.68103 | -78.92549 | 32 ft | 3 kts | 257° |
| 2026-04-21 00:50 | 33.68100 | -78.92566 | 32 ft | 2 kts | 257° |
| 2026-04-21 00:51 | 33.68099 | -78.92574 | 32 ft | 0 kts | 257° |
| 2026-04-21 00:51 | 33.68096 | -78.92590 | 31 ft | 5 kts | 257° |
| 2026-04-21 00:51 | 33.68116 | -78.92663 | 32 ft | 13 kts | 337° |
| 2026-04-21 00:51 | 33.68208 | -78.92685 | 32 ft | 18 kts | 350° |
| 2026-04-21 00:52 | 33.68357 | -78.92722 | 32 ft | 19 kts | 348° |
| 2026-04-21 00:52 | 33.68479 | -78.92752 | 32 ft | 17 kts | 348° |
| 2026-04-21 00:52 | 33.68588 | -78.92780 | 32 ft | 15 kts | 348° |
| 2026-04-21 00:52 | 33.68688 | -78.92806 | 32 ft | 14 kts | 348° |
| 2026-04-21 00:53 | 33.68778 | -78.92827 | 32 ft | 12 kts | 350° |
| 2026-04-21 00:53 | 33.68858 | -78.92846 | 32 ft | 11 kts | 348° |
| 2026-04-21 00:53 | 33.68944 | -78.92859 | 32 ft | 14 kts | 4° |
| 2026-04-21 00:53 | 33.69034 | -78.92848 | 32 ft | 12 kts | 355° |
| 2026-04-21 00:54 | 33.69114 | -78.92868 | 32 ft | 11 kts | 348° |
| 2026-04-21 00:54 | 33.69185 | -78.92886 | 32 ft | 10 kts | 348° |
| 2026-04-21 00:54 | 33.69247 | -78.92901 | 32 ft | 9 kts | 348° |
| 2026-04-21 00:54 | 33.69272 | -78.92946 | 32 ft | 6 kts | 263° |
| 2026-04-21 00:55 | 33.69265 | -78.92982 | 32 ft | 0 kts | 257° |
| 2026-04-21 00:56 | 33.69262 | -78.92997 | 30 ft | 5 kts | 257° |
| 2026-04-21 00:56 | 33.69255 | -78.93038 | 32 ft | 7 kts | 258° |
| 2026-04-21 00:56 | 33.69233 | -78.93133 | 32 ft | 13 kts | 233° |
| 2026-04-21 00:57 | 33.69174 | -78.93131 | 34 ft | 0 kts | 168° |
| 2026-04-21 00:58 | 33.69120 | -78.93118 | 34 ft | 33 kts | 168° |
| 2026-04-21 00:59 | 33.68650 | -78.93001 | 32 ft | 101 kts | 168° |
| 2026-04-21 00:59 | 33.67779 | -78.92784 | 32 ft | 152 kts | 168° |
| 2026-04-21 00:59 | 33.66654 | -78.92500 | 408 ft | 167 kts | 169° |
| 2026-04-21 00:59 | 33.65535 | -78.92237 | 1227 ft | 164 kts | 172° |
| 2026-04-21 01:00 | 33.64385 | -78.91970 | 1804 ft | 173 kts | 172° |
| 2026-04-21 01:00 | 33.63148 | -78.91706 | 2169 ft | 190 kts | 173° |
| 2026-04-21 01:00 | 33.61762 | -78.91439 | 2416 ft | 213 kts | 174° |
| 2026-04-21 01:00 | 33.60209 | -78.91147 | 2710 ft | 239 kts | 172° |
| 2026-04-21 01:01 | 33.58587 | -78.90387 | 3109 ft | 265 kts | 145° |
| 2026-04-21 01:01 | 33.57333 | -78.88712 | 3801 ft | 276 kts | 117° |
| 2026-04-21 01:01 | 33.56793 | -78.86503 | 4552 ft | 280 kts | 89° |
| 2026-04-21 01:01 | 33.57151 | -78.84240 | 5386 ft | 276 kts | 60° |
| 2026-04-21 01:02 | 33.58288 | -78.82448 | 6250 ft | 268 kts | 33° |
| 2026-04-21 01:02 | 33.59914 | -78.81461 | 7130 ft | 260 kts | 9° |
| 2026-04-21 01:02 | 33.61704 | -78.81321 | 7988 ft | 256 kts | 354° |
| 2026-04-21 01:02 | 33.63490 | -78.81396 | 8882 ft | 257 kts | 354° |
| 2026-04-21 01:03 | 33.65271 | -78.81466 | 9763 ft | 258 kts | 354° |
| 2026-04-21 01:03 | 33.67086 | -78.81536 | 10398 ft | 269 kts | 354° |
| 2026-04-21 01:03 | 33.69039 | -78.81612 | 10623 ft | 293 kts | 354° |
| 2026-04-21 01:03 | 33.71156 | -78.81692 | 10816 ft | 316 kts | 354° |
| 2026-04-21 01:04 | 33.73427 | -78.81774 | 11025 ft | 335 kts | 355° |
| 2026-04-21 01:04 | 33.75789 | -78.81854 | 11553 ft | 343 kts | 355° |
| 2026-04-21 01:04 | 33.78188 | -78.81930 | 12207 ft | 347 kts | 355° |
| 2026-04-21 01:04 | 33.80590 | -78.82007 | 12855 ft | 351 kts | 355° |
| 2026-04-21 01:05 | 33.83046 | -78.82086 | 13501 ft | 355 kts | 355° |
| 2026-04-21 01:05 | 33.85531 | -78.82169 | 14133 ft | 359 kts | 355° |
| 2026-04-21 01:05 | 33.88042 | -78.82256 | 14704 ft | 362 kts | 354° |
| 2026-04-21 01:05 | 33.90572 | -78.82345 | 15273 ft | 365 kts | 354° |
| 2026-04-21 01:06 | 33.93118 | -78.82436 | 15862 ft | 367 kts | 354° |
| 2026-04-21 01:06 | 33.95684 | -78.82525 | 16423 ft | 369 kts | 354° |
| 2026-04-21 01:06 | 33.98261 | -78.82614 | 17012 ft | 371 kts | 354° |
| 2026-04-21 01:06 | 34.00851 | -78.82702 | 17587 ft | 373 kts | 354° |
| 2026-04-21 01:07 | 34.03426 | -78.82790 | 18125 ft | 375 kts | 354° |
| 2026-04-21 01:07 | 34.06049 | -78.82881 | 18641 ft | 378 kts | 353° |
| 2026-04-21 01:07 | 34.08688 | -78.82973 | 19103 ft | 380 kts | 353° |
| 2026-04-21 01:07 | 34.11339 | -78.83068 | 19561 ft | 382 kts | 353° |
| 2026-04-21 01:08 | 34.14006 | -78.83165 | 20014 ft | 384 kts | 353° |
| 2026-04-21 01:08 | 34.16682 | -78.83261 | 20473 ft | 386 kts | 353° |
| 2026-04-21 01:08 | 34.19376 | -78.83356 | 20918 ft | 388 kts | 353° |
| 2026-04-21 01:08 | 34.22089 | -78.83450 | 21362 ft | 390 kts | 353° |
| 2026-04-21 01:09 | 34.24809 | -78.83543 | 21890 ft | 391 kts | 353° |
| 2026-04-21 01:09 | 34.27526 | -78.83637 | 22349 ft | 392 kts | 353° |
| 2026-04-21 01:09 | 34.30256 | -78.83732 | 22765 ft | 393 kts | 353° |
| 2026-04-21 01:09 | 34.32963 | -78.83828 | 23163 ft | 395 kts | 353° |
| 2026-04-21 01:10 | 34.35721 | -78.83923 | 23575 ft | 397 kts | 353° |
| 2026-04-21 01:10 | 34.38492 | -78.84021 | 23950 ft | 398 kts | 353° |
| 2026-04-21 01:10 | 34.41270 | -78.84121 | 24286 ft | 400 kts | 353° |
| 2026-04-21 01:10 | 34.44057 | -78.84219 | 24615 ft | 402 kts | 353° |
| 2026-04-21 01:11 | 34.46866 | -78.84234 | 24947 ft | 405 kts | 355° |
| 2026-04-21 01:11 | 34.49688 | -78.84149 | 25304 ft | 406 kts | 356° |
| 2026-04-21 01:11 | 34.52523 | -78.84004 | 25648 ft | 407 kts | 356° |
| 2026-04-21 01:11 | 34.55360 | -78.83837 | 25962 ft | 409 kts | 357° |
| 2026-04-21 01:12 | 34.58167 | -78.83677 | 26259 ft | 410 kts | 356° |
| 2026-04-21 01:12 | 34.61025 | -78.83529 | 26556 ft | 411 kts | 356° |
| 2026-04-21 01:12 | 34.63892 | -78.83399 | 26844 ft | 412 kts | 356° |
| 2026-04-21 01:12 | 34.66766 | -78.83284 | 27125 ft | 413 kts | 356° |
| 2026-04-21 01:13 | 34.69640 | -78.83175 | 27475 ft | 413 kts | 356° |
| 2026-04-21 01:13 | 34.72490 | -78.83064 | 28162 ft | 404 kts | 356° |
| 2026-04-21 01:13 | 34.75273 | -78.82950 | 28932 ft | 396 kts | 356° |
| 2026-04-21 01:13 | 34.78009 | -78.82835 | 29524 ft | 392 kts | 355° |
| 2026-04-21 01:14 | 34.80684 | -78.82722 | 30013 ft | 389 kts | 355° |
| 2026-04-21 01:14 | 34.83383 | -78.82612 | 30445 ft | 387 kts | 355° |
| 2026-04-21 01:14 | 34.86072 | -78.82585 | 30776 ft | 383 kts | 350° |
| 2026-04-21 01:14 | 34.88701 | -78.82993 | 31063 ft | 380 kts | 346° |
| 2026-04-21 01:15 | 34.91315 | -78.83493 | 31354 ft | 380 kts | 346° |
| 2026-04-21 01:15 | 34.93047 | -78.83826 | 31549 ft | 381 kts | 346° |
| 2026-04-21 01:15 | 34.95669 | -78.84327 | 31843 ft | 381 kts | 346° |
| 2026-04-21 01:15 | 34.98289 | -78.84823 | 32140 ft | 382 kts | 346° |
| 2026-04-21 01:16 | 35.00916 | -78.85319 | 32501 ft | 381 kts | 346° |
| 2026-04-21 01:16 | 35.03533 | -78.85810 | 32837 ft | 381 kts | 346° |
| 2026-04-21 01:16 | 35.06155 | -78.86296 | 33157 ft | 381 kts | 346° |
| 2026-04-21 01:16 | 35.08779 | -78.86778 | 33438 ft | 381 kts | 346° |
| 2026-04-21 01:17 | 35.11405 | -78.87257 | 33735 ft | 382 kts | 346° |
| 2026-04-21 01:17 | 35.14033 | -78.87734 | 34027 ft | 382 kts | 346° |
| 2026-04-21 01:17 | 35.16668 | -78.88208 | 34312 ft | 383 kts | 346° |
| 2026-04-21 01:17 | 35.19310 | -78.88677 | 34539 ft | 384 kts | 346° |
| 2026-04-21 01:18 | 35.21921 | -78.89135 | 34747 ft | 384 kts | 346° |
| 2026-04-21 01:18 | 35.24574 | -78.89595 | 35018 ft | 385 kts | 346° |
| 2026-04-21 01:18 | 35.27224 | -78.90060 | 35194 ft | 385 kts | 346° |
| 2026-04-21 01:18 | 35.29878 | -78.90528 | 35244 ft | 385 kts | 346° |
| 2026-04-21 01:19 | 35.35181 | -78.91463 | 35247 ft | 385 kts | 346° |
| 2026-04-21 01:19 | 35.40484 | -78.92397 | 35261 ft | 385 kts | 346° |
| 2026-04-21 01:20 | 35.45789 | -78.93333 | 35266 ft | 385 kts | 346° |
| 2026-04-21 01:20 | 35.51060 | -78.94239 | 35270 ft | 388 kts | 349° |
| 2026-04-21 01:21 | 35.53812 | -78.94217 | 35270 ft | 400 kts | 355° |
| 2026-04-21 01:21 | 35.56619 | -78.94080 | 35272 ft | 407 kts | 355° |
| 2026-04-21 01:21 | 35.62310 | -78.93770 | 35271 ft | 411 kts | 355° |
| 2026-04-21 01:22 | 35.68028 | -78.93439 | 35276 ft | 412 kts | 355° |